Terminal Aerodrome Forecast
Issued by NWS

Home | Current Version | Previous Version | Text Only | Print | Product List | Glossary On
Versions: 1 2 3 4 5 6 7 8 9 10 11 12 13 14 15 16 17 18 19 20 21 22 23 24
000
FTUS42 KCAE 301100
TAFOGB
TAF
KOGB 301133Z 3012/3112 21006KT P6SM SCT060 BKN120
     FM301300 24010G15KT P6SM -SHRA SCT015 OVC050
      TEMPO 3013/3015 4SM TSRA BR OVC015CB
     FM301700 27012G18KT P6SM BKN025
     FM302100 29012KT P6SM SCT050
     FM310100 32004KT P6SM SCT250=

USA.gov is the U.S. government's official web portal to all federal, state and local government web resources and services.